Details From USSS - KOLTSOVO
To UHBB - IGNATYEVO
Flight Number -
Tags decoded
Created
Modified
Stats Distance 2,468 nm / 4,570 km
Max Altitude 0 ft / 0 m
Waypoints 10
Social Downloads 0
Likes 0
Share VATSIM

Download

Looking for another format? Having issues loading an existing format? Contact us
Advertisement - Login to hide

Notes

Requested: USSS DOSUM G552 NAMOL A925 HMN R22 ARKOD G494 NINON B811 WZ UHBB Unmatched points: G552 A925 HMN R22 B811

Route

USSS DOSUM NAMOL ARKOD G494 NINON WZ UHBB

ID Type Via Altitude Latitude Longitude Leg Dist Tot Dist Heading (true) Name
O USSS APT - 0 ft / 0 m 56.74311˚ 60.80273˚ - 0 nm - KOLTSOVO
DOSUM FIX - 0 ft / 0 m 57.28889˚ 61.40028˚ 38 nm 38 nm 31° / 31° -
NAMOL FIX - 0 ft / 0 m 57.63694˚ 61.79667˚ 24 nm 62 nm 31° / 32° -
ARKOD FIX - 0 ft / 0 m 55.32556˚ 127.34778˚ 2092 nm 2155 nm 65° / 121° -
LALIR FIX G494 (AWY-LO) 0 ft / 0 m 54.81056˚ 127.26444˚ 31 nm 2186 nm 185° / 185° -
NALEB FIX G494 (AWY-LO) 0 ft / 0 m 53.69222˚ 127.08944˚ 67 nm 2253 nm 185° / 185° -
SOVIK FIX G494 (AWY-LO) 0 ft / 0 m 52.68194˚ 127.43944˚ 61 nm 2315 nm 168° / 168° -
NINON FIX G494 (AWY-LO) 0 ft / 0 m 52.00028˚ 127.66750˚ 41 nm 2357 nm 168° / 169° -
WZ NDB - 0 ft / 0 m 50.63556˚ 128.03528˚ 83 nm 2440 nm 170° / 171° SREDNEBELOYE NDB
O UHBB APT - 0 ft / 0 m 50.42539˚ 127.41249˚ 26 nm 2467 nm 242° / 242° IGNATYEVO

Altitude Profile

Advertisement - Login to hide

Weather


0- 5 10 15 20 25 30 35+ Temperature / ° C

Clouds and Precipitation
Forecast for 2017-12-14 06:00 UTC. Updated an hour ago

Ground ~20,000 ft ~40,000 ft Winds

USSS

Details ICAO USSS (SVX)
Name KOLTSOVO
Region Russia
Timezone Asia/Yekaterinburg (UTC+5.0)
Stats Elevation 764 ft / 233 m (AMSL)
Location 56.743108° 60.802727°
Runways 2
Magnetic Variation 14.863° E

METAR

USSS 140430Z 14003MPS 9000 NSC M16/M18 Q1033 R26R/810360 NOSIG RMK QFE753/1005

Decode

TAF

TAF USSS 140153Z 1403/1503 16007MPS 9999 BKN015 BECMG 1408/1410 5000 -SN

Decode

Departure Runways

ID Width Length Bearing (true) Bearing (mag) Surface Threshold Offset Overrun Length
08L 148 ft / 45 m 8,172 ft / 2,491 m 90.13° 75.27° Asphalt 0 ft / 0 m 230 ft / 70 m
08R 174 ft / 53 m 9,861 ft / 3,006 m 94.09° 79.23° Concrete 246 ft / 75 m 165 ft / 50 m
26L 174 ft / 53 m 9,861 ft / 3,006 m 274.14° 259.28° Concrete 1,066 ft / 325 m 165 ft / 50 m
26R 148 ft / 45 m 8,172 ft / 2,491 m 270.17° 255.31° Asphalt 0 ft / 0 m 220 ft / 67 m

UHBB

Details ICAO UHBB (BQS)
Name IGNATYEVO
Region Russia
Timezone Asia/Yakutsk (UTC+9.0)
Stats Elevation 638 ft / 194 m (AMSL)
Location 50.425395° 127.412489°
Runways 1
Magnetic Variation 12.262° W

METAR

UHBB 140430Z 11001MPS CAVOK M13/M26 Q1026 R36/810260 NOSIG RMK QFE752/1002

Decode

TAF

TAF UHBB 140155Z 1403/1503 30003MPS CAVOK BECMG 1409/1411 VRB01MPS= TAF UHSS 140200Z 1403/1509 36006MPS 9999 BKN030CB OVC100 BECMG 1411/1413 32003MPS TEMPO 1418/1509 1000 SHSN BKN011CB

Decode

Destination Runways

ID Width Length Bearing (true) Bearing (mag) Surface Threshold Offset Overrun Length
18 148 ft / 45 m 9,254 ft / 2,821 m 168.30° 180.56° Asphalt 0 ft / 0 m 145 ft / 44 m
36 148 ft / 45 m 9,254 ft / 2,821 m 348.30° 0.56° Asphalt 0 ft / 0 m 160 ft / 49 m

Approach Navaids

Runway Type Ident Frequency Range Bearing (true) Bearing (mag) Slope Elevation
36 Localiser ILZ 108.70 MHz 18 nm / 33 km 348.31° 0.57° - 638 ft / 194 m (AMSL)
36 Glidescope ILZ 108.70 MHz 10 nm / 19 km 348.30° 0.56° 3.05° 638 ft / 194 m (AMSL)